createdAt,value
2018-09-21T00:01:38.408Z,14.30
2018-09-21T00:06:43.483Z,14.20
2018-09-21T00:11:47.931Z,14.20
2018-09-21T00:16:52.463Z,14.20
2018-09-21T00:21:56.928Z,14.20
2018-09-21T00:27:02.176Z,14.10
2018-09-21T00:32:06.835Z,14.10
2018-09-21T00:37:11.287Z,14.20
2018-09-21T00:42:15.686Z,14.30
2018-09-21T00:47:20.195Z,14.30
2018-09-21T00:52:25.385Z,14.40
2018-09-21T00:57:29.944Z,14.30
2018-09-21T01:02:34.484Z,14.30
2018-09-21T01:07:39.556Z,14.10
2018-09-21T01:12:44.089Z,14.10
2018-09-21T01:17:48.933Z,14.20
2018-09-21T01:22:53.332Z,14.20
2018-09-21T01:27:57.835Z,14.00
2018-09-21T01:33:03.150Z,13.80
2018-09-21T01:38:07.678Z,13.70
2018-09-21T01:43:12.085Z,13.70
2018-09-21T01:48:16.744Z,13.70
2018-09-21T01:53:21.329Z,13.80
2018-09-21T01:58:25.999Z,13.80
2018-09-21T02:03:31.286Z,13.80
2018-09-21T02:08:39.318Z,13.70
2018-09-21T02:13:43.821Z,13.70
2018-09-21T02:18:48.490Z,13.60
2018-09-21T02:23:53.014Z,13.50
2018-09-21T02:28:57.532Z,13.50
2018-09-21T02:34:03.650Z,13.30
2018-09-21T02:39:09.325Z,13.30
2018-09-21T02:44:13.892Z,13.30
2018-09-21T02:49:18.947Z,13.30
2018-09-21T02:54:23.416Z,13.40
2018-09-21T02:59:28.456Z,13.30
2018-09-21T03:04:33.120Z,13.30
2018-09-21T03:09:37.727Z,13.30
2018-09-21T03:14:42.238Z,13.30
2018-09-21T03:19:46.746Z,13.30
2018-09-21T03:24:51.372Z,13.40
2018-09-21T03:29:56.506Z,13.20
2018-09-21T03:35:01.260Z,13.10
2018-09-21T03:40:08.009Z,13.10
2018-09-21T03:45:13.536Z,13.10
2018-09-21T03:50:18.340Z,13.00
2018-09-21T03:55:22.826Z,12.90
2018-09-21T04:00:27.749Z,12.80
2018-09-21T04:05:32.150Z,12.80
2018-09-21T04:10:37.040Z,12.80
2018-09-21T04:15:41.518Z,12.80
2018-09-21T04:20:45.924Z,12.80
2018-09-21T04:25:50.499Z,12.70
2018-09-21T04:30:55.133Z,12.80
2018-09-21T04:35:59.462Z,12.70
2018-09-21T04:41:05.437Z,12.60
2018-09-21T04:46:10.083Z,12.60
2018-09-21T04:51:14.702Z,12.70
2018-09-21T04:56:20.099Z,12.50
2018-09-21T05:01:25.351Z,12.50
2018-09-21T05:06:29.828Z,12.60
2018-09-21T05:11:34.412Z,12.60
2018-09-21T05:16:39.945Z,12.60
2018-09-21T05:21:44.893Z,12.60
2018-09-21T05:26:49.944Z,12.60
2018-09-21T05:31:54.610Z,12.70
2018-09-21T05:36:59.076Z,12.90
2018-09-21T05:42:04.135Z,12.90
2018-09-21T05:47:09.860Z,13.00
2018-09-21T05:52:14.866Z,13.10
2018-09-21T05:57:21.712Z,13.40
2018-09-21T06:02:26.392Z,13.60
2018-09-21T06:07:31.517Z,13.70
2018-09-21T06:12:36.788Z,13.80
2018-09-21T06:17:41.235Z,14.00
2018-09-21T06:22:45.809Z,14.30
2018-09-21T06:27:51.827Z,14.60
2018-09-21T06:32:56.363Z,14.90
2018-09-21T06:38:00.797Z,15.20
2018-09-21T06:43:06.093Z,15.50
2018-09-21T06:48:11.174Z,15.70
2018-09-21T06:53:15.669Z,16.00
2018-09-21T06:58:20.188Z,16.20
2018-09-21T07:03:26.371Z,16.50
2018-09-21T07:08:30.794Z,16.80
2018-09-21T07:13:35.647Z,17.10
2018-09-21T07:18:40.088Z,17.40
2018-09-21T07:23:44.578Z,17.70
2018-09-21T07:28:49.350Z,18.00
2018-09-21T07:33:53.761Z,18.20
2018-09-21T07:38:58.613Z,18.60
2018-09-21T07:44:03.090Z,18.80
2018-09-21T07:49:07.934Z,19.10
2018-09-21T07:54:12.710Z,19.30
2018-09-21T07:59:17.529Z,19.40
2018-09-21T08:04:22.111Z,19.60
2018-09-21T08:09:26.538Z,19.90
2018-09-21T08:14:31.520Z,20.20
2018-09-21T08:19:36.479Z,20.10
2018-09-21T08:24:41.441Z,20.50
2018-09-21T08:29:46.334Z,20.70
2018-09-21T08:34:50.839Z,21.40
2018-09-21T08:39:57.050Z,21.70
2018-09-21T08:45:01.797Z,22.00
2018-09-21T08:50:07.132Z,22.30
2018-09-21T08:55:11.803Z,22.30
2018-09-21T09:00:16.573Z,22.00
2018-09-21T09:05:24.222Z,22.10
2018-09-21T09:10:28.717Z,22.40
2018-09-21T09:15:33.211Z,22.60
2018-09-21T09:20:38.681Z,22.50
2018-09-21T09:25:44.729Z,22.70
2018-09-21T09:30:49.447Z,22.90
2018-09-21T09:35:54.749Z,23.10
2018-09-21T09:40:59.819Z,23.60
2018-09-21T09:46:05.382Z,23.20
2018-09-21T09:51:09.889Z,23.20
2018-09-21T09:56:15.056Z,23.20
2018-09-21T10:01:20.287Z,23.40
2018-09-21T10:06:24.818Z,23.90
2018-09-21T10:11:29.337Z,23.90
2018-09-21T10:16:57.120Z,24.30
2018-09-21T10:22:04.517Z,24.80
2018-09-21T10:27:09.197Z,24.60
2018-09-21T10:32:14.081Z,24.30
2018-09-21T10:37:18.630Z,24.80
2018-09-21T10:42:23.160Z,25.20
2018-09-21T10:47:28.064Z,25.80
2018-09-21T10:52:34.090Z,26.20
2018-09-21T10:57:39.951Z,25.80
2018-09-21T11:02:44.479Z,27.40
2018-09-21T11:07:49.940Z,29.60
2018-09-21T11:12:54.548Z,29.20
2018-09-21T11:17:59.494Z,29.60
2018-09-21T11:23:04.940Z,30.70
2018-09-21T11:28:09.653Z,30.30
2018-09-21T11:33:14.804Z,28.00
2018-09-21T11:38:19.685Z,28.40
2018-09-21T11:43:24.752Z,27.90
2018-09-21T11:48:29.262Z,27.70
2018-09-21T11:53:33.556Z,27.60
2018-09-21T11:58:38.299Z,27.00
2018-09-21T12:03:44.165Z,27.10
2018-09-21T12:08:49.361Z,26.90
2018-09-21T12:13:55.416Z,26.70
2018-09-21T12:19:00.895Z,27.10
2018-09-21T12:24:07.791Z,27.30
2018-09-21T12:29:12.372Z,28.30
2018-09-21T12:34:16.791Z,28.40
2018-09-21T12:39:21.930Z,27.80
2018-09-21T12:44:26.372Z,27.10
2018-09-21T12:49:33.030Z,26.80
2018-09-21T12:54:37.891Z,26.60
2018-09-21T12:59:42.432Z,26.40
2018-09-21T13:04:46.796Z,26.10
2018-09-21T13:09:51.692Z,26.40
2018-09-21T13:14:56.099Z,26.90
2018-09-21T13:20:01.488Z,27.50
2018-09-21T13:25:06.047Z,27.10
2018-09-21T13:30:10.518Z,26.50
2018-09-21T13:35:15.036Z,25.90
2018-09-21T13:40:20.038Z,25.80
2018-09-21T13:45:25.657Z,25.80
2018-09-21T13:50:30.201Z,25.50
2018-09-21T13:55:35.524Z,25.20
2018-09-21T14:00:41.327Z,24.80
2018-09-21T14:05:45.833Z,24.60
2018-09-21T14:10:51.217Z,24.50
2018-09-21T14:15:55.618Z,24.50
2018-09-21T14:20:59.959Z,24.60
2018-09-21T14:26:04.469Z,24.70
2018-09-21T14:31:09.077Z,24.70
2018-09-21T14:36:13.569Z,24.80
2018-09-21T14:41:18.078Z,24.80
2018-09-21T14:46:23.579Z,24.50
2018-09-21T14:51:27.902Z,24.20
2018-09-21T14:56:32.363Z,23.90
2018-09-21T15:01:37.851Z,23.50
2018-09-21T15:06:43.047Z,23.30
2018-09-21T15:11:47.705Z,23.00
2018-09-21T15:16:52.418Z,22.80
2018-09-21T15:21:56.814Z,22.40
2018-09-21T15:27:01.300Z,21.90
2018-09-21T15:32:05.836Z,21.90
2018-09-21T15:37:10.339Z,21.90
2018-09-21T15:42:15.898Z,22.00
2018-09-21T15:47:21.212Z,22.10
2018-09-21T15:52:25.774Z,22.10
2018-09-21T15:57:30.759Z,22.00
2018-09-21T16:02:35.072Z,21.90
2018-09-21T16:07:39.642Z,21.70
2018-09-21T16:12:44.003Z,21.70
2018-09-21T16:17:50.306Z,21.70
2018-09-21T16:22:54.658Z,21.70
2018-09-21T16:27:59.237Z,21.60
2018-09-21T16:33:04.548Z,21.50
2018-09-21T16:38:10.177Z,21.40
2018-09-21T16:43:14.776Z,21.40
2018-09-21T16:48:20.111Z,21.30
2018-09-21T16:53:24.861Z,21.30
2018-09-21T16:58:30.075Z,21.20
2018-09-21T17:03:35.469Z,21.20
2018-09-21T17:08:40.209Z,21.30
2018-09-21T17:13:46.057Z,21.30
2018-09-21T17:18:51.172Z,21.30
2018-09-21T17:24:02.546Z,21.30
2018-09-21T17:29:07.637Z,21.30
2018-09-21T17:34:12.983Z,21.30
2018-09-21T17:39:18.900Z,21.40
2018-09-21T17:44:24.172Z,21.30
2018-09-21T17:49:28.978Z,20.90
2018-09-21T17:54:33.579Z,20.20
2018-09-21T17:59:39.767Z,19.20
2018-09-21T18:04:44.634Z,18.50
2018-09-21T18:09:52.209Z,18.00
2018-09-21T18:14:56.707Z,17.90
2018-09-21T18:20:01.422Z,17.80
2018-09-21T18:25:07.480Z,17.70
2018-09-21T18:30:12.547Z,17.30
2018-09-21T18:35:17.365Z,17.00
2018-09-21T18:41:57.648Z,16.80
2018-09-21T18:47:03.060Z,16.60
2018-09-21T18:52:07.667Z,16.20
2018-09-21T18:57:12.379Z,16.10
2018-09-21T19:02:17.626Z,15.70
2018-09-21T19:07:27.261Z,15.50
2018-09-21T19:12:31.786Z,15.10
2018-09-21T19:17:36.457Z,15.10
2018-09-21T19:22:41.094Z,15.00
2018-09-21T19:27:45.868Z,14.90
2018-09-21T19:32:50.402Z,14.80
2018-09-21T19:37:55.970Z,14.70
2018-09-21T19:43:00.618Z,14.70
2018-09-21T19:48:05.233Z,14.60
2018-09-21T19:53:09.949Z,14.50
2018-09-21T19:58:15.609Z,14.50
2018-09-21T20:03:20.353Z,14.60
2018-09-21T20:08:24.981Z,14.50
2018-09-21T20:13:30.935Z,14.50
2018-09-21T20:18:36.277Z,14.50
2018-09-21T20:23:40.992Z,14.50
2018-09-21T20:28:45.971Z,14.60
2018-09-21T20:33:51.366Z,14.60
2018-09-21T20:38:56.273Z,14.40
2018-09-21T20:44:01.191Z,14.30
2018-09-21T20:49:05.932Z,14.40
2018-09-21T20:54:10.932Z,14.30
2018-09-21T20:59:16.038Z,14.20
2018-09-21T21:04:21.205Z,14.10
2018-09-21T21:09:26.155Z,14.00
2018-09-21T21:14:30.544Z,14.00
2018-09-21T21:19:36.989Z,14.00
2018-09-21T21:24:42.173Z,14.00
2018-09-21T21:29:46.753Z,14.00
2018-09-21T21:34:53.284Z,14.00
2018-09-21T21:39:58.340Z,14.20
2018-09-21T21:45:03.030Z,14.10
2018-09-21T21:50:08.101Z,14.10
2018-09-21T21:55:13.495Z,14.10
2018-09-21T22:00:18.893Z,14.10
2018-09-21T22:05:23.497Z,14.10
2018-09-21T22:10:28.054Z,14.10
2018-09-21T22:15:32.384Z,14.00
2018-09-21T22:20:37.098Z,14.00
2018-09-21T22:25:41.858Z,13.90
2018-09-21T22:30:46.237Z,13.80
2018-09-21T22:35:50.970Z,13.70
2018-09-21T22:40:55.550Z,13.80
2018-09-21T22:46:00.125Z,13.70
2018-09-21T22:51:05.441Z,13.50
2018-09-21T22:56:10.355Z,13.50
2018-09-21T23:01:16.112Z,13.50
2018-09-21T23:06:20.681Z,13.50
2018-09-21T23:11:25.187Z,13.50
2018-09-21T23:16:29.653Z,13.50
2018-09-21T23:21:34.470Z,13.50
2018-09-21T23:26:38.937Z,13.40
2018-09-21T23:31:43.692Z,13.50
2018-09-21T23:36:48.490Z,13.60
2018-09-21T23:41:59.368Z,13.50
2018-09-21T23:47:03.893Z,13.50
2018-09-21T23:52:08.505Z,13.50
2018-09-21T23:57:13.099Z,13.50
